Time;durP1;ratioP1;P1;durP2;ratioP2;P2;SDS_P1;SDS_P2;PMS_P1;PMS_P2;Temp;Humidity;BMP_temperature;BMP_pressure;BME280_temperature;BME280_humidity;BME280_pressure;Samples;Min_cycle;Max_cycle;Signal;HPM_P1;HPM_P2
2022/06/15 00:02:13;;;;;;;;;;;;;;;21.73;28.92;98095.97;4938387;29;1001;-77
2022/06/15 00:04:38;;;;;;;;;;;;;;;21.48;29.05;98091.72;4938699;29;1035;-77
2022/06/15 00:07:04;;;;;;;;;;;;;;;21.35;29.10;98087.19;4938032;29;1017;-77
2022/06/15 00:09:29;;;;;;;;;;;;;;;21.20;29.51;98098.84;4937966;29;972;-77
2022/06/15 00:11:55;;;;;;;;;;;;;;;21.29;29.25;98095.38;4967227;28;1992;-77
2022/06/15 00:14:21;;;;;;;;;;;;;;;21.72;29.04;98098.00;4978773;28;949;-77
2022/06/15 00:16:47;;;;;;;;;;;;;;;22.05;28.33;98083.78;4978575;28;1062;-77
2022/06/15 00:19:12;;;;;;;;;;;;;;;21.99;28.43;98085.56;4978523;28;853;-77
2022/06/15 00:21:38;;;;;;;;;;;;;;;21.54;28.93;98100.47;4956964;29;922;-77
2022/06/15 00:24:04;;;;;;;;;;;;;;;21.45;29.18;98097.47;4909100;29;958;-77
2022/06/15 00:26:29;;;;;;;;;;;;;;;21.36;29.16;98091.66;4918479;29;1119;-77
2022/06/15 00:28:55;;;;;;;;;;;;;;;21.23;29.56;98102.81;4919145;29;928;-77
2022/06/15 00:31:20;;;;;;;;;;;;;;;21.37;29.12;98105.34;4899824;29;1915;-77
2022/06/15 00:33:46;;;;;;;;;;;;;;;21.52;28.83;98112.25;4900024;29;959;-77
2022/06/15 00:36:12;;;;;;;;;;;;;;;21.82;28.63;98115.97;4899460;29;947;-76
2022/06/15 00:38:39;;;;;;;;;;;;;;;21.94;28.37;98111.63;4899313;29;968;-77
2022/06/15 00:41:05;;;;;;;;;;;;;;;21.77;28.23;98111.63;4899380;29;1026;-77
2022/06/15 00:43:35;;;;;;;;;;;;;;;21.51;28.71;98102.19;4880546;29;914;-77
2022/06/15 00:46:01;;;;;;;;;;;;;;;21.39;28.87;98110.56;4880850;29;1110;-77
2022/06/15 00:48:26;;;;;;;;;;;;;;;21.40;28.94;98095.16;4880779;29;951;-78
2022/06/15 00:50:52;;;;;;;;;;;;;;;21.25;29.03;98094.69;4880669;29;1895;-77
2022/06/15 00:53:17;;;;;;;;;;;;;;;21.26;29.44;98097.09;4894818;29;966;-77
2022/06/15 00:55:43;;;;;;;;;;;;;;;21.83;28.42;98109.06;4936988;29;935;-77
2022/06/15 00:58:09;;;;;;;;;;;;;;;21.97;28.30;98105.06;4917742;29;1074;-77
2022/06/15 01:00:34;;;;;;;;;;;;;;;22.15;27.97;98101.78;4918254;29;977;-77
2022/06/15 01:02:59;;;;;;;;;;;;;;;21.87;28.23;98100.47;4920330;29;940;-77
2022/06/15 01:05:26;;;;;;;;;;;;;;;21.54;28.83;98106.16;4936897;29;1020;-77
2022/06/15 01:08:03;;;;;;;;;;;;;;;21.47;28.90;98112.00;4918164;29;1024;-77
2022/06/15 01:11:04;;;;;;;;;;;;;;;21.33;29.13;98111.09;4918102;29;1978;-77
2022/06/15 01:13:48;;;;;;;;;;;;;;;21.31;29.05;98110.75;4881986;29;1245;-77
2022/06/15 01:16:14;;;;;;;;;;;;;;;21.16;29.49;98120.75;4899127;29;1272;-77
2022/06/15 01:18:39;;;;;;;;;;;;;;;21.50;29.29;98126.06;4899103;29;1151;-77
2022/06/15 01:21:05;;;;;;;;;;;;;;;21.89;28.47;98115.78;4899556;29;990;-77
2022/06/15 01:23:36;;;;;;;;;;;;;;;22.04;28.59;98119.03;4899101;29;1130;-77
2022/06/15 01:26:05;;;;;;;;;;;;;;;21.87;29.09;98126.78;4883501;29;982;-77
2022/06/15 01:28:36;;;;;;;;;;;;;;;21.56;29.61;98115.81;4899022;29;1078;-77
2022/06/15 01:31:16;;;;;;;;;;;;;;;21.43;29.69;98117.72;4899170;29;1966;-77
2022/06/15 01:34:00;;;;;;;;;;;;;;;21.39;30.01;98119.84;4866669;29;1026;-77
2022/06/15 01:36:28;;;;;;;;;;;;;;;21.24;30.28;98125.03;4861795;29;965;-77
2022/06/15 01:39:10;;;;;;;;;;;;;;;21.33;30.06;98119.56;4861857;29;935;-77
2022/06/15 01:41:46;;;;;;;;;;;;;;;21.19;30.40;98113.41;4863470;29;963;-78
2022/06/15 01:44:16;;;;;;;;;;;;;;;21.77;30.02;98114.47;4865433;29;1210;-77
2022/06/15 01:46:43;;;;;;;;;;;;;;;22.02;29.57;98110.16;4862160;29;1224;-77
2022/06/15 01:49:10;;;;;;;;;;;;;;;22.05;29.56;98109.28;4846855;29;1178;-77
2022/06/15 01:51:37;;;;;;;;;;;;;;;21.73;29.90;98108.09;4879207;29;1911;-77
2022/06/15 01:54:06;;;;;;;;;;;;;;;21.54;30.19;98117.47;4865010;29;1150;-77
2022/06/15 01:56:34;;;;;;;;;;;;;;;21.42;30.54;98112.53;4871316;29;879;-77
2022/06/15 01:59:05;;;;;;;;;;;;;;;21.40;30.63;98117.81;4868426;29;1283;-77
2022/06/15 02:01:35;;;;;;;;;;;;;;;21.45;30.22;98120.94;4868268;29;1488;-77
2022/06/15 02:04:04;;;;;;;;;;;;;;;21.25;30.81;98125.84;4854149;29;1200;-77
2022/06/15 02:06:36;;;;;;;;;;;;;;;21.23;30.98;98131.91;4867939;29;1199;-77
2022/06/15 02:09:28;;;;;;;;;;;;;;;21.37;30.66;98130.03;4868044;29;1269;-77
2022/06/15 02:11:53;;;;;;;;;;;;;;;21.30;30.56;98136.66;4794902;29;1912;-77
2022/06/15 02:14:21;;;;;;;;;;;;;;;21.49;30.93;98132.16;4794888;29;1322;-77
2022/06/15 02:16:59;;;;;;;;;;;;;;;21.81;30.76;98126.50;4797190;29;1297;-77
2022/06/15 02:19:32;;;;;;;;;;;;;;;22.12;30.02;98117.63;4770821;30;1168;-77
2022/06/15 02:21:58;;;;;;;;;;;;;;;21.75;30.30;98121.81;4787979;30;1115;-77
2022/06/15 02:24:24;;;;;;;;;;;;;;;21.74;30.49;98120.22;4791430;29;1038;-77
2022/06/15 02:26:50;;;;;;;;;;;;;;;21.39;30.91;98121.88;4748337;30;1122;-77
2022/06/15 02:29:17;;;;;;;;;;;;;;;21.27;31.07;98115.66;4791783;29;1039;-77
2022/06/15 02:31:49;;;;;;;;;;;;;;;21.31;30.79;98119.22;4755715;30;1912;-77
2022/06/15 02:34:14;;;;;;;;;;;;;;;21.19;31.01;98122.72;4755609;30;1065;-78
2022/06/15 02:36:43;;;;;;;;;;;;;;;21.38;30.84;98128.78;4755560;30;1054;-77
2022/06/15 02:39:10;;;;;;;;;;;;;;;21.80;30.88;98130.56;4755807;30;1360;-77
2022/06/15 02:41:36;;;;;;;;;;;;;;;22.01;30.63;98115.03;4773240;30;962;-77
2022/06/15 02:44:04;;;;;;;;;;;;;;;21.85;30.25;98134.91;4772992;30;1247;-77
2022/06/15 02:46:31;;;;;;;;;;;;;;;21.75;30.69;98133.94;4773490;30;988;-77
2022/06/15 02:48:57;;;;;;;;;;;;;;;21.51;31.20;98141.03;4783602;30;1048;-77
2022/06/15 02:51:22;;;;;;;;;;;;;;;21.47;30.80;98131.81;4791314;30;1896;-77
2022/06/15 02:53:55;;;;;;;;;;;;;;;21.32;31.20;98137.81;4805943;29;1326;-77
2022/06/15 02:56:21;;;;;;;;;;;;;;;21.24;30.99;98144.03;4807015;29;1108;-77
2022/06/15 02:58:47;;;;;;;;;;;;;;;21.25;30.99;98146.44;4857549;29;1169;-77
2022/06/15 03:01:12;;;;;;;;;;;;;;;21.73;31.32;98147.75;4845394;29;1067;-77
2022/06/15 03:03:39;;;;;;;;;;;;;;;22.05;30.38;98140.47;4810980;29;1310;-78
2022/06/15 03:06:15;;;;;;;;;;;;;;;21.88;30.76;98144.56;4826971;29;968;-77
2022/06/15 03:08:41;;;;;;;;;;;;;;;21.71;31.03;98150.22;4808804;29;1251;-77
2022/06/15 03:11:18;;;;;;;;;;;;;;;21.44;31.44;98141.16;4795154;29;1907;-77
2022/06/15 03:13:45;;;;;;;;;;;;;;;21.35;31.61;98143.81;4776316;29;1184;-77
2022/06/15 03:16:10;;;;;;;;;;;;;;;21.45;31.45;98139.94;4775759;30;1566;-77
2022/06/15 03:18:40;;;;;;;;;;;;;;;21.43;31.08;98134.72;4790523;30;1281;-77
2022/06/15 03:21:08;;;;;;;;;;;;;;;21.23;31.34;98137.56;4790712;30;1261;-77
2022/06/15 03:23:33;;;;;;;;;;;;;;;21.25;31.36;98139.97;4807681;29;1419;-77
2022/06/15 03:26:00;;;;;;;;;;;;;;;21.14;31.65;98150.72;4811398;29;1286;-77
2022/06/15 03:28:26;;;;;;;;;;;;;;;21.19;31.35;98148.19;4838894;29;1222;-77
2022/06/15 03:30:52;;;;;;;;;;;;;;;21.53;32.01;98149.84;4824326;29;1908;-77
2022/06/15 03:33:18;;;;;;;;;;;;;;;21.92;31.38;98153.78;4826246;29;1356;-77
2022/06/15 03:35:43;;;;;;;;;;;;;;;22.05;30.85;98161.09;4844176;29;1365;-77
2022/06/15 03:38:18;;;;;;;;;;;;;;;21.84;31.32;98158.81;4862892;29;1375;-77
2022/06/15 03:40:50;;;;;;;;;;;;;;;21.35;31.97;98160.78;4863247;29;1573;-77
2022/06/15 03:43:16;;;;;;;;;;;;;;;21.48;31.73;98154.00;4867917;29;1980;-77
2022/06/15 03:45:42;;;;;;;;;;;;;;;21.46;31.27;98156.50;4856551;29;1421;-78
2022/06/15 03:48:09;;;;;;;;;;;;;;;21.58;31.05;98157.81;4844592;29;1091;-77
2022/06/15 03:50:35;;;;;;;;;;;;;;;21.36;31.27;98156.75;4844504;29;1915;-77
2022/06/15 03:53:02;;;;;;;;;;;;;;;21.32;31.34;98157.59;4840732;29;2041;-77
2022/06/15 03:55:30;;;;;;;;;;;;;;;21.24;31.63;98161.81;4828805;29;1288;-77
2022/06/15 03:57:56;;;;;;;;;;;;;;;21.26;31.53;98158.56;4826354;29;1250;-77
2022/06/15 04:00:22;;;;;;;;;;;;;;;21.09;32.10;98157.72;4828383;29;1018;-78
2022/06/15 04:02:52;;;;;;;;;;;;;;;21.49;32.57;98166.13;4826132;29;1008;-77
2022/06/15 04:05:41;;;;;;;;;;;;;;;22.08;31.46;98162.25;4807209;29;1216;-77
2022/06/15 04:11:01;;;;;;;;;;;;;;;22.40;30.72;98171.97;4844355;29;1899;-77
2022/06/15 04:13:27;;;;;;;;;;;;;;;21.87;31.12;98169.25;4807652;29;1302;-77
2022/06/15 04:15:52;;;;;;;;;;;;;;;21.69;31.54;98163.22;4817797;29;1191;-77
2022/06/15 04:18:18;;;;;;;;;;;;;;;21.66;31.14;98158.44;4799769;29;1043;-77
2022/06/15 04:20:46;;;;;;;;;;;;;;;21.53;31.32;98169.69;4804301;29;1600;-78
2022/06/15 04:23:18;;;;;;;;;;;;;;;21.47;31.40;98177.09;4843438;29;1497;-77
2022/06/15 04:25:58;;;;;;;;;;;;;;;21.43;31.45;98162.22;4844727;29;1469;-77
2022/06/15 04:28:27;;;;;;;;;;;;;;;21.51;31.26;98169.34;4828967;29;1438;-77
2022/06/15 04:30:55;;;;;;;;;;;;;;;21.26;31.59;98167.84;4833279;29;1907;-77
2022/06/15 04:33:28;;;;;;;;;;;;;;;21.37;31.50;98175.31;4814656;29;1298;-77
2022/06/15 04:35:57;;;;;;;;;;;;;;;21.32;31.41;98174.59;4813004;29;1096;-78
2022/06/15 04:38:23;;;;;;;;;;;;;;;21.59;32.14;98176.41;4820801;29;1685;-77
2022/06/15 04:40:55;;;;;;;;;;;;;;;21.84;31.55;98185.09;4821952;29;1736;-77
2022/06/15 04:43:21;;;;;;;;;;;;;;;22.15;31.26;98183.97;4839120;29;1565;-77
2022/06/15 04:45:47;;;;;;;;;;;;;;;21.70;31.53;98182.59;4786336;30;1495;-77
2022/06/15 04:48:18;;;;;;;;;;;;;;;21.49;31.82;98183.91;4788378;30;1731;-77
2022/06/15 04:50:44;;;;;;;;;;;;;;;21.40;32.01;98194.22;4797602;29;1990;-77
2022/06/15 04:53:11;;;;;;;;;;;;;;;21.37;31.69;98204.41;4753430;30;1887;-77
2022/06/15 04:55:36;;;;;;;;;;;;;;;21.36;31.71;98207.69;4753647;30;1012;-77
2022/06/15 04:58:02;;;;;;;;;;;;;;;21.49;31.42;98200.09;4753520;29;1265;-78
2022/06/15 05:00:29;;;;;;;;;;;;;;;21.41;31.51;98198.69;4757857;29;1258;-78
2022/06/15 05:02:56;;;;;;;;;;;;;;;21.28;31.78;98207.81;4768511;30;1267;-77
2022/06/15 05:05:22;;;;;;;;;;;;;;;21.53;31.80;98212.13;4840099;29;1751;-77
2022/06/15 05:07:48;;;;;;;;;;;;;;;21.76;32.53;98203.53;4843476;29;1086;-77
2022/06/15 05:10:16;;;;;;;;;;;;;;;22.12;31.34;98213.97;4889569;29;1982;-77
2022/06/15 05:12:42;;;;;;;;;;;;;;;22.03;31.65;98205.28;4859668;29;1446;-77
2022/06/15 05:15:08;;;;;;;;;;;;;;;21.69;31.89;98215.00;4878477;29;2976;-77
2022/06/15 05:17:35;;;;;;;;;;;;;;;21.64;31.82;98217.56;4878113;29;1800;-77
2022/06/15 05:20:01;;;;;;;;;;;;;;;21.60;31.85;98220.47;4896063;29;1177;-77
2022/06/15 05:22:29;;;;;;;;;;;;;;;21.54;31.41;98230.72;4886068;29;1503;-77
2022/06/15 05:25:03;;;;;;;;;;;;;;;21.49;31.41;98228.41;4887365;29;1264;-77
2022/06/15 05:27:31;;;;;;;;;;;;;;;21.40;31.51;98239.53;4918276;29;1309;-77
2022/06/15 05:29:57;;;;;;;;;;;;;;;21.37;31.64;98237.59;4936767;29;1981;-78
2022/06/15 05:32:22;;;;;;;;;;;;;;;21.37;31.64;98237.59;4920248;29;1478;-77
2022/06/15 05:34:48;;;;;;;;;;;;;;;21.31;31.69;98235.28;4936568;29;1078;-77
2022/06/15 05:37:15;;;;;;;;;;;;;;;21.22;32.06;98249.19;4904537;29;1555;-77
2022/06/15 05:39:41;;;;;;;;;;;;;;;21.23;32.25;98250.75;4917639;29;1289;-77
2022/06/15 05:42:08;;;;;;;;;;;;;;;21.30;31.87;98249.88;4901534;29;1517;-76
2022/06/15 05:44:53;;;;;;;;;;;;;;;21.33;31.66;98261.09;4915047;29;1137;-77
2022/06/15 05:47:19;;;;;;;;;;;;;;;21.32;31.47;98265.16;4916210;29;1888;-77
2022/06/15 05:50:00;;;;;;;;;;;;;;;21.22;31.94;98271.03;4902334;29;1903;-77
2022/06/15 05:52:34;;;;;;;;;;;;;;;21.39;32.38;98264.22;4902530;29;2407;-77
2022/06/15 05:55:01;;;;;;;;;;;;;;;21.77;32.37;98266.63;4898549;29;1968;-77
2022/06/15 05:57:27;;;;;;;;;;;;;;;21.96;32.17;98267.78;4898718;29;965;-77
2022/06/15 05:59:54;;;;;;;;;;;;;;;22.02;31.89;98274.50;4879442;29;954;-77
2022/06/15 06:02:20;;;;;;;;;;;;;;;21.67;31.94;98274.13;4842599;29;1076;-77
2022/06/15 06:04:46;;;;;;;;;;;;;;;21.59;32.13;98272.66;4831557;29;1577;-77
2022/06/15 06:07:12;;;;;;;;;;;;;;;21.52;31.86;98276.47;4833817;29;1829;-77
2022/06/15 06:09:38;;;;;;;;;;;;;;;21.54;31.51;98276.03;4825623;29;1936;-77
2022/06/15 06:12:03;;;;;;;;;;;;;;;21.32;31.91;98276.50;4842689;29;1972;-77
2022/06/15 06:14:29;;;;;;;;;;;;;;;21.50;31.33;98280.97;4844675;29;1202;-77
2022/06/15 06:16:54;;;;;;;;;;;;;;;21.23;31.81;98279.06;4859577;29;1505;-77
2022/06/15 06:19:20;;;;;;;;;;;;;;;21.35;31.68;98279.66;4857743;29;1818;-77
2022/06/15 06:21:45;;;;;;;;;;;;;;;21.32;31.48;98284.97;4861471;29;1039;-77
2022/06/15 06:24:11;;;;;;;;;;;;;;;21.25;31.57;98282.28;4861308;29;963;-77
2022/06/15 06:26:37;;;;;;;;;;;;;;;21.18;31.74;98285.22;4861646;29;1002;-77
2022/06/15 06:29:03;;;;;;;;;;;;;;;21.24;31.63;98292.00;4863895;29;1518;-78
2022/06/15 06:31:29;;;;;;;;;;;;;;;21.41;30.98;98289.25;4872101;29;1903;-78
2022/06/15 06:33:54;;;;;;;;;;;;;;;21.47;32.77;98296.00;4873186;29;938;-77
2022/06/15 06:36:29;;;;;;;;;;;;;;;21.70;32.79;98283.75;4911022;29;1678;-77
2022/06/15 06:38:55;;;;;;;;;;;;;;;21.91;32.01;98299.47;4904580;29;926;-77
2022/06/15 06:41:22;;;;;;;;;;;;;;;21.70;32.27;98298.72;4882657;29;1019;-77
2022/06/15 06:43:47;;;;;;;;;;;;;;;21.61;31.98;98301.38;4867129;29;1003;-77
2022/06/15 06:46:12;;;;;;;;;;;;;;;21.53;31.85;98300.72;4882592;29;1368;-77
2022/06/15 06:48:38;;;;;;;;;;;;;;;21.41;31.80;98307.03;4867404;29;1614;-77
2022/06/15 06:51:03;;;;;;;;;;;;;;;21.36;31.99;98306.75;4863785;29;1986;-77
2022/06/15 06:53:29;;;;;;;;;;;;;;;21.42;31.48;98307.84;4863984;29;1012;-77
2022/06/15 06:55:58;;;;;;;;;;;;;;;21.36;31.69;98309.59;4863881;29;1053;-77
2022/06/15 06:58:24;;;;;;;;;;;;;;;21.44;31.59;98308.97;4864151;29;970;-78
2022/06/15 07:00:51;;;;;;;;;;;;;;;21.52;31.21;98312.47;4864577;29;904;-78
2022/06/15 07:03:16;;;;;;;;;;;;;;;21.22;31.48;98305.78;4863885;29;1011;-77
2022/06/15 07:05:41;;;;;;;;;;;;;;;21.23;31.44;98310.19;4863973;29;959;-77
2022/06/15 07:08:08;;;;;;;;;;;;;;;21.41;31.10;98306.25;4849492;29;913;-78
2022/06/15 07:10:34;;;;;;;;;;;;;;;21.26;31.18;98312.16;4859402;29;1907;-77
2022/06/15 07:12:59;;;;;;;;;;;;;;;21.22;31.52;98311.44;4886172;29;1861;-77
2022/06/15 07:15:25;;;;;;;;;;;;;;;21.23;31.51;98317.88;4919178;29;1730;-77
2022/06/15 07:17:50;;;;;;;;;;;;;;;21.31;31.02;98320.19;4920190;29;931;-78
2022/06/15 07:20:16;;;;;;;;;;;;;;;21.20;31.06;98322.41;4919066;29;1629;-77
2022/06/15 07:22:41;;;;;;;;;;;;;;;21.32;31.02;98327.44;4904131;29;1587;-77
2022/06/15 07:25:07;;;;;;;;;;;;;;;21.23;31.12;98330.00;4904826;29;943;-77
2022/06/15 07:27:33;;;;;;;;;;;;;;;21.52;31.96;98329.47;4938838;29;1740;-77
2022/06/15 07:29:59;;;;;;;;;;;;;;;21.74;32.37;98330.59;4921339;29;1911;-77
2022/06/15 07:32:25;;;;;;;;;;;;;;;21.91;32.51;98328.59;4938793;29;1012;-77
2022/06/15 07:34:50;;;;;;;;;;;;;;;22.06;31.81;98329.06;4922694;29;989;-77
2022/06/15 07:37:16;;;;;;;;;;;;;;;21.74;31.99;98336.25;4938508;29;894;-77
2022/06/15 07:39:42;;;;;;;;;;;;;;;21.61;31.93;98332.53;4938201;29;941;-77
2022/06/15 07:42:08;;;;;;;;;;;;;;;21.50;32.06;98332.75;4966145;28;1941;-77
2022/06/15 07:44:34;;;;;;;;;;;;;;;21.44;31.72;98330.84;4956560;29;2318;-77
2022/06/15 07:49:57;;;;;;;;;;;;;;;21.32;31.43;98338.75;4919504;29;1006;-77
2022/06/15 07:52:49;;;;;;;;;;;;;;;21.33;31.52;98346.00;4911085;29;1933;-77
2022/06/15 07:55:18;;;;;;;;;;;;;;;21.37;31.23;98347.97;4919227;29;1055;-77
2022/06/15 07:57:43;;;;;;;;;;;;;;;21.30;31.12;98338.41;4919316;29;995;-77
2022/06/15 08:00:09;;;;;;;;;;;;;;;21.28;31.50;98338.00;4918757;29;1053;-77
2022/06/15 08:02:38;;;;;;;;;;;;;;;21.39;30.83;98342.66;4888012;29;1091;-77
2022/06/15 08:05:04;;;;;;;;;;;;;;;21.40;30.86;98349.91;4918799;29;952;-77
2022/06/15 08:07:29;;;;;;;;;;;;;;;21.45;30.76;98347.41;4869710;29;2017;-77
2022/06/15 08:09:54;;;;;;;;;;;;;;;21.21;30.98;98348.66;4862610;29;999;-77
2022/06/15 08:12:23;;;;;;;;;;;;;;;21.36;31.03;98349.22;4872676;29;1911;-77
2022/06/15 08:14:49;;;;;;;;;;;;;;;21.32;30.99;98350.06;4877593;29;908;-77
2022/06/15 08:17:21;;;;;;;;;;;;;;;21.24;30.82;98345.78;4865904;29;1086;-77
2022/06/15 08:19:47;;;;;;;;;;;;;;;21.23;30.92;98355.47;4880677;29;993;-77
2022/06/15 08:22:13;;;;;;;;;;;;;;;21.16;31.22;98352.78;4841990;29;1518;-77
2022/06/15 08:24:38;;;;;;;;;;;;;;;21.20;30.73;98358.41;4843662;29;966;-77
2022/06/15 08:27:04;;;;;;;;;;;;;;;21.19;30.78;98349.13;4843915;29;964;-77
2022/06/15 08:29:29;;;;;;;;;;;;;;;21.07;30.99;98352.56;4843844;29;1013;-77
2022/06/15 08:31:57;;;;;;;;;;;;;;;21.16;30.86;98358.47;4851834;29;1911;-77
2022/06/15 08:34:26;;;;;;;;;;;;;;;21.10;30.93;98365.84;4862544;29;1876;-77
2022/06/15 08:36:51;;;;;;;;;;;;;;;21.37;31.23;98362.13;4878972;29;1675;-77
2022/06/15 08:39:16;;;;;;;;;;;;;;;21.58;31.86;98356.81;4879271;29;1782;-77
2022/06/15 08:41:42;;;;;;;;;;;;;;;21.96;31.60;98362.06;4880343;29;1753;-77
2022/06/15 08:44:18;;;;;;;;;;;;;;;22.15;31.06;98365.34;4878064;29;1571;-77
2022/06/15 08:47:07;;;;;;;;;;;;;;;21.85;31.17;98365.16;4880504;29;984;-77
2022/06/15 08:49:35;;;;;;;;;;;;;;;21.47;31.63;98366.78;4836422;29;1274;-78
2022/06/15 08:52:14;;;;;;;;;;;;;;;21.41;31.67;98368.53;4824715;29;1915;-77
2022/06/15 08:54:40;;;;;;;;;;;;;;;21.42;31.31;98370.13;4861668;29;988;-77
2022/06/15 08:57:06;;;;;;;;;;;;;;;21.48;31.23;98363.50;4868735;29;1663;-77
2022/06/15 08:59:48;;;;;;;;;;;;;;;21.35;31.42;98376.72;4879803;29;1410;-77
2022/06/15 09:02:24;;;;;;;;;;;;;;;21.28;31.16;98366.28;4846099;29;959;-77
2022/06/15 09:05:02;;;;;;;;;;;;;;;21.26;31.28;98380.09;4861704;29;1064;-77
2022/06/15 09:07:45;;;;;;;;;;;;;;;21.42;30.94;98375.78;4860436;29;1663;-77
2022/06/15 09:10:17;;;;;;;;;;;;;;;21.22;31.10;98378.56;4861739;29;1903;-77
2022/06/15 09:13:01;;;;;;;;;;;;;;;21.26;30.83;98374.44;4861620;29;985;-77
2022/06/15 09:15:33;;;;;;;;;;;;;;;21.28;30.62;98366.28;4861835;29;1109;-77
2022/06/15 09:17:59;;;;;;;;;;;;;;;21.28;30.70;98371.97;4872726;29;941;-77
2022/06/15 09:20:45;;;;;;;;;;;;;;;21.31;30.58;98376.78;4861084;29;1943;-78
2022/06/15 09:23:23;;;;;;;;;;;;;;;21.41;30.22;98385.50;4855999;29;1925;-78
2022/06/15 09:25:49;;;;;;;;;;;;;;;21.17;30.66;98381.88;4876155;29;998;-77
2022/06/15 09:28:25;;;;;;;;;;;;;;;21.15;30.60;98388.00;4879795;29;943;-77
2022/06/15 09:30:50;;;;;;;;;;;;;;;21.17;30.53;98391.19;4879689;29;1903;-77
2022/06/15 09:33:16;;;;;;;;;;;;;;;21.29;30.54;98384.88;4880039;29;914;-78
2022/06/15 09:35:43;;;;;;;;;;;;;;;21.16;30.41;98389.59;4895499;29;1662;-77
2022/06/15 09:38:10;;;;;;;;;;;;;;;21.21;30.75;98389.09;4902102;29;1171;-77
2022/06/15 09:40:51;;;;;;;;;;;;;;;21.39;30.91;98382.31;4861013;29;979;-77
2022/06/15 09:43:23;;;;;;;;;;;;;;;21.68;31.12;98389.00;4861293;29;1045;-77
2022/06/15 09:45:53;;;;;;;;;;;;;;;21.92;31.12;98386.09;4861137;29;1012;-77
2022/06/15 09:48:37;;;;;;;;;;;;;;;22.17;30.95;98386.31;4879688;29;1016;-78
2022/06/15 09:51:08;;;;;;;;;;;;;;;21.89;30.77;98390.56;4878964;29;1907;-77
2022/06/15 09:53:45;;;;;;;;;;;;;;;21.55;31.34;98390.88;4879668;29;980;-77
2022/06/15 09:56:13;;;;;;;;;;;;;;;21.50;31.19;98388.53;4879475;29;989;-77
2022/06/15 09:58:43;;;;;;;;;;;;;;;21.48;31.10;98396.69;4870042;29;2064;-78
2022/06/15 10:01:08;;;;;;;;;;;;;;;21.37;31.21;98396.91;4861203;29;1023;-78
2022/06/15 10:03:35;;;;;;;;;;;;;;;21.29;31.24;98393.34;4848738;29;969;-77
2022/06/15 10:06:03;;;;;;;;;;;;;;;21.35;31.00;98398.53;4842414;29;2089;-77
2022/06/15 10:08:28;;;;;;;;;;;;;;;21.29;30.99;98396.19;4861485;29;1896;-77
2022/06/15 10:10:57;;;;;;;;;;;;;;;21.29;31.19;98393.34;4842372;29;1907;-77
2022/06/15 10:13:26;;;;;;;;;;;;;;;21.23;31.19;98392.25;4843387;29;992;-77
2022/06/15 10:15:52;;;;;;;;;;;;;;;21.11;31.10;98401.41;4857220;29;1929;-78
2022/06/15 10:18:37;;;;;;;;;;;;;;;21.21;30.84;98399.59;4848937;29;1009;-77
2022/06/15 10:21:05;;;;;;;;;;;;;;;21.12;30.77;98403.00;4864728;29;1180;-77
2022/06/15 10:23:33;;;;;;;;;;;;;;;21.28;30.43;98405.13;4850671;29;1788;-77
2022/06/15 10:25:58;;;;;;;;;;;;;;;21.17;30.61;98398.88;4809202;29;1031;-77
2022/06/15 10:28:32;;;;;;;;;;;;;;;21.28;30.46;98400.25;4827762;29;1092;-77
2022/06/15 10:30:59;;;;;;;;;;;;;;;21.10;30.64;98399.81;4827269;29;1903;-77
2022/06/15 10:33:24;;;;;;;;;;;;;;;21.16;30.36;98392.41;4846070;29;1089;-77
2022/06/15 10:35:57;;;;;;;;;;;;;;;21.13;30.42;98398.91;4852840;29;1847;-77
2022/06/15 10:38:23;;;;;;;;;;;;;;;21.24;30.51;98399.56;4900810;29;1706;-77
2022/06/15 10:40:54;;;;;;;;;;;;;;;21.08;30.35;98397.38;4882381;29;1027;-77
2022/06/15 10:43:29;;;;;;;;;;;;;;;21.64;30.87;98391.09;4881689;29;2005;-77
2022/06/15 10:45:56;;;;;;;;;;;;;;;21.81;30.73;98386.28;4878560;29;2011;-77
2022/06/15 10:48:22;;;;;;;;;;;;;;;21.89;30.90;98381.28;4877941;29;1743;-77
2022/06/15 10:51:00;;;;;;;;;;;;;;;21.72;30.77;98378.41;4882058;29;1906;-77
2022/06/15 10:53:40;;;;;;;;;;;;;;;21.41;30.95;98379.84;4897670;29;926;-77
2022/06/15 11:04:32;;;;;;;;;;;;;;;21.13;31.02;98387.59;4919509;29;998;-78
2022/06/15 11:07:05;;;;;;;;;;;;;;;21.40;30.58;98381.88;4920062;29;1033;-77
2022/06/15 11:09:32;;;;;;;;;;;;;;;21.28;30.73;98394.59;4902176;29;1711;-77
2022/06/15 11:11:58;;;;;;;;;;;;;;;21.29;30.92;98384.88;4898551;29;1894;-77
2022/06/15 11:14:33;;;;;;;;;;;;;;;21.23;30.88;98392.25;4881029;29;1208;-77
2022/06/15 11:19:54;;;;;;;;;;;;;;;21.06;31.13;98390.56;4895864;29;2003;-77
2022/06/15 11:22:20;;;;;;;;;;;;;;;21.01;31.08;98388.25;4890315;29;926;-77
2022/06/15 11:24:48;;;;;;;;;;;;;;;21.18;31.06;98397.63;4884954;29;991;-77
2022/06/15 11:27:19;;;;;;;;;;;;;;;21.19;31.04;98394.38;4885357;29;978;-78
2022/06/15 11:29:52;;;;;;;;;;;;;;;21.12;31.33;98403.00;4844896;29;1023;-77
2022/06/15 11:32:24;;;;;;;;;;;;;;;21.04;31.34;98385.34;4834427;29;1907;-77
2022/06/15 11:34:55;;;;;;;;;;;;;;;21.24;31.52;98393.88;4851172;29;1056;-77
2022/06/15 11:37:28;;;;;;;;;;;;;;;21.66;30.79;98384.97;4844465;29;1336;-77
2022/06/15 11:40:06;;;;;;;;;;;;;;;21.99;30.41;98391.59;4826275;29;1227;-77
2022/06/15 11:42:31;;;;;;;;;;;;;;;21.48;31.06;98393.84;4826211;29;984;-77
2022/06/15 11:44:57;;;;;;;;;;;;;;;21.35;31.08;98392.88;4823184;29;1859;-77
2022/06/15 11:47:44;;;;;;;;;;;;;;;21.24;31.42;98393.88;4829248;29;1887;-77
2022/06/15 11:50:15;;;;;;;;;;;;;;;21.25;31.18;98389.81;4844378;29;1911;-77
2022/06/15 11:52:43;;;;;;;;;;;;;;;21.22;31.31;98393.50;4859913;29;1003;-77
2022/06/15 11:55:20;;;;;;;;;;;;;;;21.26;31.10;98391.41;4862570;29;952;-77
2022/06/15 11:57:55;;;;;;;;;;;;;;;21.23;30.98;98389.44;4862647;29;1058;-78
2022/06/15 12:00:26;;;;;;;;;;;;;;;21.46;30.83;98394.28;4873408;29;1990;-78
2022/06/15 12:02:51;;;;;;;;;;;;;;;21.27;30.77;98403.53;4856569;29;1013;-78
2022/06/15 12:05:20;;;;;;;;;;;;;;;21.30;30.89;98403.50;4844036;29;944;-77
2022/06/15 12:07:45;;;;;;;;;;;;;;;21.16;30.88;98409.38;4848685;29;1070;-77
2022/06/15 12:10:19;;;;;;;;;;;;;;;21.08;30.97;98402.25;4869976;29;1918;-77
2022/06/15 12:12:50;;;;;;;;;;;;;;;21.21;31.29;98394.75;4899607;29;950;-77
2022/06/15 12:15:34;;;;;;;;;;;;;;;21.64;30.74;98399.59;4917762;29;1519;-77
2022/06/15 12:18:18;;;;;;;;;;;;;;;21.95;30.35;98399.34;4918803;29;953;-77
2022/06/15 12:20:46;;;;;;;;;;;;;;;21.74;30.03;98397.78;4918774;29;1134;-78
2022/06/15 12:23:14;;;;;;;;;;;;;;;21.46;30.79;98393.50;4918891;29;952;-77
2022/06/15 12:25:40;;;;;;;;;;;;;;;21.32;30.87;98395.38;4930015;29;991;-78
2022/06/15 12:28:17;;;;;;;;;;;;;;;21.28;31.14;98400.25;4952039;29;1730;-77
2022/06/15 12:31:02;;;;;;;;;;;;;;;21.36;30.79;98394.50;4940982;29;1996;-78
2022/06/15 12:33:34;;;;;;;;;;;;;;;21.43;30.54;98391.53;4955326;28;1991;-77
2022/06/15 12:36:07;;;;;;;;;;;;;;;21.35;30.26;98376.72;4977924;28;953;-78
2022/06/15 12:38:49;;;;;;;;;;;;;;;21.17;31.05;98377.03;4974107;28;1674;-77
2022/06/15 12:44:01;;;;;;;;;;;;;;;21.12;30.79;98368.25;4917795;29;1010;-77
2022/06/15 12:46:27;;;;;;;;;;;;;;;21.06;30.84;98377.22;4898951;29;1019;-77
2022/06/15 12:49:12;;;;;;;;;;;;;;;21.07;30.98;98373.16;4899218;29;1024;-77
2022/06/15 12:51:50;;;;;;;;;;;;;;;21.09;30.91;98369.91;4897616;29;2329;-77
2022/06/15 12:54:15;;;;;;;;;;;;;;;21.03;30.85;98371.63;4898289;29;1729;-77
2022/06/15 12:56:59;;;;;;;;;;;;;;;21.54;30.99;98356.09;4898331;29;1928;-77
2022/06/15 12:59:43;;;;;;;;;;;;;;;21.88;29.89;98352.16;4897583;29;1948;-77
2022/06/15 13:02:19;;;;;;;;;;;;;;;21.70;30.08;98349.69;4898947;29;1076;-77
2022/06/15 13:05:03;;;;;;;;;;;;;;;21.26;31.18;98345.34;4897890;29;1867;-77
2022/06/15 13:07:31;;;;;;;;;;;;;;;21.49;30.50;98336.00;4886446;29;1689;-77
2022/06/15 13:10:05;;;;;;;;;;;;;;;21.25;30.82;98336.06;4877714;29;1886;-77
2022/06/15 13:12:54;;;;;;;;;;;;;;;21.19;30.83;98334.97;4880049;29;1911;-77
2022/06/15 13:15:25;;;;;;;;;;;;;;;21.13;31.28;98335.88;4843051;29;986;-77
2022/06/15 13:18:08;;;;;;;;;;;;;;;21.26;31.04;98331.97;4866386;29;1811;-77
2022/06/15 13:20:54;;;;;;;;;;;;;;;21.17;30.87;98331.75;4842852;29;924;-77
2022/06/15 13:23:22;;;;;;;;;;;;;;;21.11;31.02;98339.16;4843357;29;1004;-77
2022/06/15 13:25:51;;;;;;;;;;;;;;;21.09;31.26;98333.13;4854112;29;1005;-78
2022/06/15 13:28:16;;;;;;;;;;;;;;;21.11;31.14;98330.66;4863610;29;1877;-77
2022/06/15 13:30:47;;;;;;;;;;;;;;;21.17;30.75;98337.41;4880354;29;1903;-78
2022/06/15 13:33:13;;;;;;;;;;;;;;;21.21;30.79;98332.47;4879048;29;1938;-77